Flight Track Log - Related Links

Times and Time Zones

All times are in EDT time to prevent confusion due to time zone crossing. See the VRD236 flight status page for this flight to view local times or setup timezone preferences in your user account.


Time Position Orientation Groundspeed Altitude Reporting Facility
EDT Latitude Longitude Course Direction KTS MPH feet Rate Location/Type
Thu 08:10:11 PM 33.9460 -118.4410 263° West 147 169 1,200  Level FlightAware ADS-B
Thu 08:10:38 PM 33.9440 -118.4680 265° West 177 204 1,600 1,625 Climbing FlightAware ADS-B
Thu 08:13:00 PM 34.0699 -118.1623 48° Northeast  Level FlightAware Approximate
Thu 08:14:00 PM 34.1419 -118.0495 59° Northeast  Level FlightAware Approximate
Thu 08:14:59 PM 33.8200 -118.4940 59° Northeast 271 312 9,000  Level FlightAware ADS-B
Thu 08:15:00 PM 34.2033 -117.9269 59° Northeast  Level FlightAware Approximate
Thu 08:15:38 PM 33.8780 -118.4620 25° Northeast 313 360 10,300  Level FlightAware ADS-B
Thu 08:16:09 PM 33.9420 -118.4230 27° Northeast 354 407 10,900 1,676 Climbing FlightAware ADS-B
Thu 08:16:46 PM 33.9780 -118.3620 55° Northeast 357 411 12,200 2,154 Climbing FlightAware ADS-B
Thu 08:17:27 PM 34.0140 -118.2900 59° Northeast 359 413 13,700 1,926 Climbing FlightAware ADS-B
Thu 08:18:07 PM 34.0520 -118.2220 56° Northeast 370 426 14,800 1,737 Climbing FlightAware ADS-B
Thu 08:18:43 PM 34.0870 -118.1610 55° Northeast 373 429 15,900 1,538 Climbing FlightAware ADS-B
Thu 08:19:25 PM 34.1290 -118.0870 56° Northeast 387 445 16,800 1,535 Climbing FlightAware ADS-B
Thu 08:20:09 PM 34.1750 -118.0070 55° Northeast 391 450 18,100 1,624 Climbing FlightAware ADS-B
Thu 08:20:50 PM 34.2150 -117.9360 56° Northeast 393 452 19,100 1,463 Climbing FlightAware ADS-B
Thu 08:21:31 PM 34.2580 -117.8590 56° Northeast 400 460 20,100 1,341 Climbing FlightAware ADS-B
Thu 08:22:15 PM 34.3050 -117.7750 56° Northeast 406 467 21,000 1,286 Climbing FlightAware ADS-B
Thu 08:22:55 PM 34.3460 -117.7010 56° Northeast 410 472 21,900 1,263 Climbing FlightAware ADS-B
Thu 08:23:31 PM 34.3850 -117.6320 56° Northeast 416 479 22,600 1,125 Climbing FlightAware ADS-B
Thu 08:24:15 PM 34.4320 -117.5460 56° Northeast 422 486 23,400 1,116 Climbing FlightAware ADS-B
Thu 08:24:57 PM 34.4780 -117.4640 56° Northeast 426 490 24,200 1,054 Climbing FlightAware ADS-B
Thu 08:25:29 PM 34.5130 -117.4020 56° Northeast 429 494 24,700 935 Climbing FlightAware ADS-B
Thu 08:26:14 PM 34.5640 -117.3100 56° Northeast 435 501 25,400 1,071 Climbing FlightAware ADS-B
Thu 08:26:53 PM 34.6080 -117.2280 57° Northeast 437 503 26,200 1,012 Climbing FlightAware ADS-B
Thu 08:27:37 PM 34.6630 -117.1470 50° Northeast 441 507 26,800 857 Climbing FlightAware ADS-B
Thu 08:28:17 PM 34.7200 -117.0700 48° Northeast 446 513 27,400 857 Climbing FlightAware ADS-B
Thu 08:29:01 PM 34.7780 -116.9910 48° Northeast 449 517 28,000 857 Climbing FlightAware ADS-B
Thu 08:29:41 PM 34.8340 -116.9150 48° Northeast 452 520 28,600 900 Climbing FlightAware ADS-B
Thu 08:30:21 PM 34.8890 -116.8390 49° Northeast 453 521 29,200 889 Climbing FlightAware ADS-B
Thu 08:31:02 PM 34.9460 -116.7610 48° Northeast 457 526 29,800 805 Climbing FlightAware ADS-B
Thu 08:31:43 PM 35.0050 -116.6790 49° Northeast 459 528 30,300 730 Climbing FlightAware ADS-B
Thu 08:32:16 PM 35.0520 -116.6150 48° Northeast 461 531 30,700 533 Climbing FlightAware ADS-B
Thu 08:33:13 PM 35.1270 -116.5120 48° Northeast 462 532 31,100 258 Climbing FlightAware ADS-B
Thu 08:33:49 PM 35.1700 -116.4520 49° Northeast 462 532 31,100  Level FlightAware ADS-B
Thu 08:34:37 PM 35.2290 -116.3730 48° Northeast 462 532 31,100  Level FlightAware ADS-B
Thu 08:35:13 PM 35.2720 -116.3130 49° Northeast 462 532 31,100 2,077 Level FlightAware ADS-B
Thu 08:35:55 PM 35.3590 -116.1860 50° Northeast 458 527 33,800 2,250 Climbing FlightAware ADS-B
Thu 08:36:41 PM 35.4230 -116.0960 49° Northeast 455 524 34,400 767 Climbing FlightAware ADS-B
Thu 08:37:21 PM 35.4780 -116.0190 49° Northeast 453 521 34,900 456 Climbing FlightAware ADS-B
Thu 08:38:00 PM 35.5340 -115.9410 49° Northeast 455 524 35,000 76 Climbing FlightAware ADS-B
Thu 08:38:40 PM 35.5880 -115.8640 49° Northeast 453 521 35,000  Level FlightAware ADS-B
Thu 08:39:21 PM 35.6430 -115.7860 49° Northeast 447 514 35,000  Level FlightAware ADS-B
Thu 08:40:00 PM 35.6970 -115.7080 50° Northeast 446 513 35,000  Level FlightAware ADS-B
Thu 08:40:41 PM 35.7530 -115.6300 48° Northeast 447 514 35,000  Level FlightAware ADS-B
Thu 08:41:19 PM 35.8040 -115.5570 49° Northeast 447 514 35,000  Level FlightAware ADS-B
Thu 08:42:03 PM 35.8640 -115.4720 49° Northeast 446 513 35,000  Level FlightAware ADS-B
Thu 08:42:49 PM 35.9250 -115.3840 49° Northeast 447 514 35,000  Level FlightAware ADS-B
Thu 08:43:29 PM 35.9790 -115.3070 49° Northeast 450 518 35,000  Level FlightAware ADS-B
Thu 08:44:09 PM 36.0320 -115.2290 50° Northeast 450 518 35,000  Level FlightAware ADS-B
Thu 08:44:46 PM 36.0820 -115.1570 49° Northeast 451 519 35,000  Level FlightAware ADS-B
Thu 08:45:27 PM 36.1320 -115.0670 55° Northeast 449 517 35,000  Level FlightAware ADS-B
Thu 08:46:07 PM 36.1780 -114.9840 56° Northeast 448 516 35,000  Level FlightAware ADS-B
Thu 08:46:51 PM 36.2300 -114.8910 55° Northeast 447 514 35,000  Level FlightAware ADS-B
Thu 08:47:31 PM 36.2760 -114.8080 55° Northeast 446 513 35,000  Level FlightAware ADS-B
Thu 08:48:13 PM 36.3260 -114.7170 56° Northeast 447 514 35,000  Level FlightAware ADS-B
Thu 08:48:53 PM 36.3730 -114.6330 55° Northeast 447 514 35,000  Level FlightAware ADS-B
Thu 08:49:39 PM 36.4260 -114.5360 56° Northeast 448 516 35,000  Level FlightAware ADS-B
Thu 08:50:20 PM 36.4740 -114.4500 55° Northeast 448 516 35,000  Level FlightAware ADS-B
Thu 08:51:03 PM 36.5240 -114.3570 56° Northeast 446 513 35,000  Level FlightAware ADS-B
Thu 08:51:45 PM 36.5730 -114.2680 56° Northeast 445 512 35,000  Level FlightAware ADS-B
Thu 08:52:29 PM 36.6230 -114.1750 56° Northeast 443 510 35,000  Level FlightAware ADS-B
Thu 08:53:09 PM 36.6700 -114.0900 55° Northeast 443 510 35,000  Level FlightAware ADS-B
Thu 08:53:43 PM 36.7090 -114.0180 56° Northeast 445 512 35,000  Level FlightAware ADS-B
Thu 08:54:27 PM 36.7590 -113.9250 56° Northeast 445 512 35,000  Level FlightAware ADS-B
Thu 08:55:07 PM 36.8050 -113.8400 56° Northeast 444 511 35,000  Level FlightAware ADS-B
Thu 08:55:49 PM 36.8500 -113.7560 56° Northeast 446 513 35,000  Level FlightAware ADS-B
Thu 08:56:29 PM 36.8970 -113.6690 56° Northeast 444 511 35,000  Level FlightAware ADS-B
Thu 08:57:14 PM 36.9500 -113.5700 56° Northeast 443 510 35,000  Level FlightAware ADS-B
Thu 08:57:59 PM 37.0000 -113.4750 57° Northeast 443 510 35,000  Level FlightAware ADS-B
Thu 08:58:39 PM 37.0470 -113.3880 56° Northeast 442 509 35,000  Level FlightAware ADS-B
Thu 08:59:19 PM 37.0910 -113.3030 57° Northeast 443 510 35,000  Level FlightAware ADS-B
Thu 09:00:01 PM 37.1390 -113.2130 56° Northeast 443 510 35,000  Level FlightAware ADS-B
Thu 09:00:46 PM 37.1900 -113.1160 57° Northeast 441 507 35,000  Level FlightAware ADS-B
Thu 09:01:28 PM 37.2360 -113.0300 56° Northeast 441 507 35,000  Level FlightAware ADS-B
Thu 09:02:02 PM 37.2730 -112.9580 57° Northeast 442 509 35,000  Level FlightAware ADS-B
Thu 09:02:49 PM 37.3240 -112.8630 56° Northeast 442 509 35,000  Level FlightAware ADS-B
Thu 09:03:42 PM 37.3830 -112.7500 57° Northeast 444 511 35,000  Level FlightAware ADS-B
Thu 09:04:30 PM 37.4300 -112.6620 56° Northeast 444 511 35,000  Level FlightAware ADS-B
Thu 09:05:06 PM 37.4650 -112.5960 56° Northeast 444 511 35,000  Level FlightAware ADS-B
Thu 09:05:54 PM 37.5120 -112.5090 56° Northeast 444 511 35,000  Level FlightAware ADS-B
Thu 09:06:30 PM 37.5470 -112.4430 56° Northeast 444 511 35,000  Level FlightAware ADS-B
Thu 09:07:18 PM 37.5940 -112.3560 56° Northeast 444 511 35,000  Level FlightAware ADS-B
Thu 09:07:54 PM 37.6290 -112.2900 56° Northeast 444 511 35,000  Level FlightAware ADS-B
Thu 09:08:54 PM 37.6880 -112.1800 56° Northeast 444 511 35,000  Level FlightAware ADS-B
Thu 09:09:30 PM 37.7720 -111.9930 60° Northeast 441 507 35,000  Level FlightAware ADS-B
Thu 09:10:10 PM 37.8180 -111.9030 57° Northeast 442 509 35,000  Level FlightAware ADS-B
Thu 09:10:51 PM 37.8620 -111.8170 57° Northeast 441 507 35,000  Level FlightAware ADS-B
Thu 09:12:33 PM 37.9510 -111.6410 57° Northeast 441 507 35,000  Level FlightAware ADS-B
Thu 09:13:19 PM 38.0250 -111.4930 58° Northeast 439 505 35,000  Level FlightAware ADS-B
Thu 09:13:58 PM 38.0690 -111.4050 58° Northeast 439 505 35,000  Level FlightAware ADS-B
Thu 09:14:53 PM 38.1280 -111.2870 58° Northeast 439 505 35,000  Level FlightAware ADS-B
Thu 09:15:29 PM 38.1670 -111.2090 58° Northeast 440 506 35,000  Level FlightAware ADS-B
Thu 09:16:13 PM 38.2140 -111.1120 58° Northeast 441 507 35,000  Level FlightAware ADS-B
Thu 09:16:49 PM 38.2520 -111.0370 57° Northeast 442 509 35,000  Level FlightAware ADS-B
Thu 09:17:31 PM 38.2990 -110.9410 58° Northeast 444 511 35,000  Level FlightAware ADS-B
Thu 09:18:19 PM 38.3520 -110.8340 58° Northeast 445 512 35,000  Level FlightAware ADS-B
Thu 09:18:55 PM 38.3920 -110.7530 58° Northeast 445 512 35,000  Level FlightAware ADS-B
Thu 09:19:43 PM 38.4470 -110.6520 55° Northeast 444 511 35,000  Level FlightAware ADS-B
Thu 09:20:19 PM 38.4920 -110.5800 51° Northeast 442 509 35,000  Level FlightAware ADS-B
Thu 09:20:59 PM 38.5440 -110.4960 52° Northeast 442 509 35,000  Level FlightAware ADS-B
Thu 09:21:39 PM 38.5940 -110.4140 52° Northeast 440 506 35,000  Level FlightAware ADS-B
Thu 09:22:20 PM 38.6460 -110.3300 52° Northeast 441 507 35,000  Level FlightAware ADS-B
Thu 09:23:04 PM 38.7010 -110.2400 52° Northeast 441 507 35,000  Level FlightAware ADS-B
Thu 09:23:48 PM 38.7560 -110.1500 52° Northeast 440 506 35,000  Level FlightAware ADS-B
Thu 09:24:28 PM 38.8060 -110.0670 52° Northeast 439 505 35,000  Level FlightAware ADS-B
Thu 09:25:12 PM 38.8610 -109.9770 52° Northeast 441 507 35,000  Level FlightAware ADS-B
Thu 09:25:52 PM 38.9100 -109.8970 52° Northeast 442 509 35,000  Level FlightAware ADS-B
Thu 09:26:38 PM 38.9690 -109.8000 52° Northeast 439 505 35,000  Level FlightAware ADS-B
Thu 09:27:18 PM 39.0180 -109.7180 52° Northeast 439 505 35,000  Level FlightAware ADS-B
Thu 09:27:58 PM 39.0680 -109.6350 52° Northeast 440 506 35,000  Level FlightAware ADS-B
Thu 09:28:42 PM 39.1230 -109.5430 52° Northeast 442 509 35,000  Level FlightAware ADS-B
Thu 09:29:20 PM 39.1700 -109.4650 52° Northeast 446 513 35,000  Level FlightAware ADS-B
Thu 09:30:04 PM 39.2270 -109.3700 52° Northeast 449 517 35,000 67 Level FlightAware ADS-B
Thu 09:30:49 PM 39.2850 -109.2730 52° Northeast 449 517 35,100 70 Climbing FlightAware ADS-B
Thu 09:31:30 PM 39.3340 -109.1890 53° Northeast 446 513 35,100 -74 Level FlightAware ADS-B
Thu 09:32:10 PM 39.3830 -109.1070 52° Northeast 444 511 35,000 -71 Descending FlightAware ADS-B
Thu 09:32:54 PM 39.4400 -109.0100 53° Northeast 443 510 35,000  Level FlightAware ADS-B
Thu 09:33:30 PM 39.4820 -108.9380 53° Northeast 442 509 35,000  Level FlightAware ADS-B
Thu 09:34:20 PM 39.5470 -108.8280 53° Northeast 446 513 35,000  Level FlightAware ADS-B
Thu 09:35:00 PM 39.5950 -108.7450 53° Northeast 447 514 35,000  Level FlightAware ADS-B
Thu 09:35:40 PM 39.6460 -108.6580 53° Northeast 447 514 35,000  Level FlightAware ADS-B
Thu 09:36:22 PM 39.6980 -108.5690 53° Northeast 447 514 35,000 75 Level FlightAware ADS-B
Thu 09:37:00 PM 39.7430 -108.4910 53° Northeast 445 512 35,100  Climbing FlightAware ADS-B
Thu 09:37:40 PM 39.7940 -108.4020 53° Northeast 442 509 35,000 -73 Descending FlightAware ADS-B
Thu 09:38:22 PM 39.8460 -108.3130 53° Northeast 444 511 35,000  Level FlightAware ADS-B
Thu 09:39:06 PM 39.8990 -108.2210 53° Northeast 449 517 35,000  Level FlightAware ADS-B
Thu 09:39:46 PM 39.9500 -108.1330 53° Northeast 452 520 35,000 71 Level FlightAware ADS-B
Thu 09:40:30 PM 40.0060 -108.0350 53° Northeast 453 521 35,100 70 Climbing FlightAware ADS-B
Thu 09:41:12 PM 40.0570 -107.9430 54° Northeast 449 517 35,100 -73 Level FlightAware ADS-B
Thu 09:41:52 PM 40.0980 -107.8480 61° Northeast 448 516 35,000 -73 Descending FlightAware ADS-B
Thu 09:42:34 PM 40.1370 -107.7450 64° Northeast 447 514 35,000  Level FlightAware ADS-B
Thu 09:43:17 PM 40.1740 -107.6460 64° Northeast 449 517 35,000  Level FlightAware ADS-B
Thu 09:43:56 PM 40.2120 -107.5460 64° Northeast 451 519 35,000  Level FlightAware ADS-B
Thu 09:44:42 PM 40.2530 -107.4380 64° Northeast 451 519 35,000  Level FlightAware ADS-B
Thu 09:45:17 PM 40.2860 -107.3510 64° Northeast 451 519 35,000  Level FlightAware ADS-B
Thu 09:46:06 PM 40.3310 -107.2310 64° Northeast 449 517 35,000  Level FlightAware ADS-B
Thu 09:46:44 PM 40.3660 -107.1360 64° Northeast 448 516 35,000  Level FlightAware ADS-B
Thu 09:47:20 PM 40.3991 -107.0470 64° Northeast 448 516 35,000  Level FlightAware ADS-B
Thu 09:48:08 PM 40.4420 -106.9310 64° Northeast 448 516 35,000  Level FlightAware ADS-B
Thu 09:48:54 PM 40.4830 -106.8210 64° Northeast 447 514 35,000 70 Level FlightAware ADS-B
Thu 09:49:34 PM 40.5190 -106.7230 64° Northeast 445 512 35,100  Climbing FlightAware ADS-B
Thu 09:50:18 PM 40.5590 -106.6150 64° Northeast 444 511 35,000 -73 Descending FlightAware ADS-B
Thu 09:50:56 PM 40.5930 -106.5210 65° Northeast 444 511 35,000  Level FlightAware ADS-B
Thu 09:51:38 PM 40.6300 -106.4210 64° Northeast 446 513 35,000  Level FlightAware ADS-B
Thu 09:52:20 PM 40.6670 -106.3180 65° Northeast 446 513 35,000  Level FlightAware ADS-B
Thu 09:52:56 PM 40.6990 -106.2290 65° Northeast 448 516 35,000  Level FlightAware ADS-B
Thu 09:53:38 PM 40.7360 -106.1260 65° Northeast 450 518 35,000  Level FlightAware ADS-B
Thu 09:54:20 PM 40.7720 -106.0260 65° Northeast 450 518 35,000  Level FlightAware ADS-B
Thu 09:55:04 PM 40.8130 -105.9110 65° Northeast 452 520 35,000  Level FlightAware ADS-B
Thu 09:55:44 PM 40.8490 -105.8120 64° Northeast 451 519 35,000  Level FlightAware ADS-B
Thu 09:56:28 PM 40.8880 -105.7010 65° Northeast 452 520 35,000 71 Level FlightAware ADS-B
Thu 09:57:08 PM 40.9230 -105.6030 65° Northeast 451 519 35,100 86 Climbing FlightAware ADS-B
Thu 09:57:38 PM 40.9490 -105.5290 65° Northeast 449 517 35,100 -78 Level FlightAware ADS-B
Thu 09:58:25 PM 40.9900 -105.4110 65° Northeast 445 512 35,000 -48 Descending FlightAware ADS-B
Thu 09:59:44 PM 41.0520 -105.2370 65° Northeast 442 509 35,000  Level FlightAware ADS-B
Thu 10:00:32 PM 41.0992 -105.0990 66° East 442 509 35,000  Level FlightAware ADS-B
Thu 10:01:03 PM 41.1253 -105.0240 65° Northeast 444 511 35,000  Level FlightAware ADS-B
Thu 10:01:34 PM 41.1518 -104.9470 65° Northeast 447 514 35,000  Level FlightAware ADS-B
Thu 10:02:34 PM 41.2032 -104.7950 66° East 450 518 35,000 73 Level FlightAware ADS-B
Thu 10:02:56 PM 41.2179 -104.7370 71° East 454 522 35,100 109 Climbing FlightAware ADS-B
Thu 10:03:29 PM 41.2345 -104.6490 76° East 455 524 35,100 -95 Level FlightAware ADS-B
Thu 10:03:59 PM 41.2495 -104.5650 77° East 456 525 35,000  Descending FlightAware ADS-B
Thu 10:04:31 PM 41.2648 -104.4790 77° East 458 527 35,100 484 Climbing FlightAware ADS-B
Thu 10:05:01 PM 41.2798 -104.3960 76° East 461 531 35,500 612 Climbing FlightAware ADS-B
Thu 10:05:20 PM 41.2891 -104.3440 77° East 464 534 35,600 375 Climbing FlightAware ADS-B
Thu 10:05:33 PM 41.2934 -104.3090 81° East 464 534 35,700 774 Climbing FlightAware ADS-B
Thu 10:05:51 PM 41.2973 -104.2570 84° East 465 535 36,000 938 Climbing FlightAware ADS-B
Thu 10:06:05 PM 41.2983 -104.2180 88° East 465 535 36,200 828 Climbing FlightAware ADS-B
Thu 10:06:20 PM 41.2975 -104.1730 91° East 463 533 36,400 800 Climbing FlightAware ADS-B
Thu 10:06:50 PM 41.2930 -104.0880 94° East 463 533 36,800 492 Climbing FlightAware ADS-B
Thu 10:07:21 PM 41.2886 -104.0010 94° East 467 537 36,900 197 Climbing FlightAware ADS-B
Thu 10:07:51 PM 41.2843 -103.9140 94° East 473 544 37,000 98 Climbing FlightAware ADS-B
Thu 10:08:22 PM 41.2795 -103.8240 94° East 478 550 37,000  Level FlightAware ADS-B
Thu 10:08:52 PM 41.2747 -103.7390 94° East 480 552 37,000  Level FlightAware ADS-B
Thu 10:09:23 PM 41.2702 -103.6460 94° East 479 551 37,000  Level FlightAware ADS-B
Thu 10:09:53 PM 41.2657 -103.5570 94° East 478 550 37,000  Level FlightAware ADS-B
Thu 10:10:07 PM 41.2644 -103.5170 92° East 480 552 37,000  Level FlightAware ADS-B
Thu 10:10:20 PM 41.2660 -103.4790 87° East 480 552 37,000  Level FlightAware ADS-B
Thu 10:10:33 PM 41.2717 -103.4410 79° East 475 547 37,000  Level FlightAware ADS-B
Thu 10:11:03 PM 41.2882 -103.3560 75° East 472 543 37,000  Level FlightAware ADS-B
Thu 10:11:36 PM 41.3051 -103.2650 76° East 471 542 37,000  Level FlightAware ADS-B
Thu 10:12:06 PM 41.3210 -103.1790 76° East 476 548 37,000  Level FlightAware ADS-B
Thu 10:12:37 PM 41.3372 -103.0920 76° East 482 555 37,000  Level FlightAware ADS-B
Thu 10:13:12 PM 41.3563 -102.9900 76° East 481 554 37,000  Level FlightAware ADS-B
Thu 10:13:43 PM 41.3721 -102.9040 76° East 478 550 37,000  Level FlightAware ADS-B
Thu 10:14:13 PM 41.3880 -102.8180 76° East 477 549 37,000  Level FlightAware ADS-B
Thu 10:15:00 PM 41.4128 -102.6830 76° East 478 550 37,000  Level FlightAware ADS-B
Thu 10:15:31 PM 41.4287 -102.5960 76° East 473 544 37,000  Level FlightAware ADS-B
Thu 10:16:02 PM 41.4445 -102.5090 76° East 478 550 37,000  Level FlightAware ADS-B
Thu 10:16:32 PM 41.4603 -102.4220 76° East 478 550 37,000  Level FlightAware ADS-B
Thu 10:17:02 PM 41.4757 -102.3360 77° East 475 547 37,000  Level FlightAware ADS-B
Thu 10:17:33 PM 41.4907 -102.2510 77° East 476 548 37,000  Level FlightAware ADS-B
Thu 10:18:04 PM 41.5068 -102.1620 76° East 476 548 37,000  Level FlightAware ADS-B
Thu 10:18:35 PM 41.5226 -102.0730 77° East 476 548 37,000  Level FlightAware ADS-B
Thu 10:19:05 PM 41.5378 -101.9870 77° East 474 545 37,000  Level FlightAware ADS-B
Thu 10:19:35 PM 41.5529 -101.9000 77° East 474 545 37,000  Level FlightAware ADS-B
Thu 10:20:09 PM 41.5693 -101.8060 77° East 473 544 37,000  Level FlightAware ADS-B
Thu 10:20:40 PM 41.5847 -101.7180 77° East 472 543 37,000  Level FlightAware ADS-B
Thu 10:21:12 PM 41.6005 -101.6260 77° East 473 544 37,000  Level FlightAware ADS-B
Thu 10:21:42 PM 41.6151 -101.5410 77° East 471 542 37,000  Level FlightAware ADS-B
Thu 10:22:12 PM 41.6298 -101.4550 77° East 471 542 37,000  Level FlightAware ADS-B
Thu 10:22:42 PM 41.6442 -101.3700 77° East 473 544 37,000  Level FlightAware ADS-B
Thu 10:23:16 PM 41.6598 -101.2780 77° East 473 544 37,000  Level FlightAware ADS-B
Thu 10:23:54 PM 41.6785 -101.1680 77° East 472 543 37,000  Level FlightAware ADS-B
Thu 10:24:24 PM 41.6929 -101.0820 77° East 471 542 37,000  Level FlightAware ADS-B
Thu 10:25:24 PM 41.7194 -100.9239 77° East 470 541 37,000  Level Denver Center
Thu 10:31:22 PM 41.8849 -99.8936 77° East 467 537 37,000  Level FlightAware ADS-B
Thu 10:31:52 PM 41.8982 -99.8079 78° East 468 539 37,000  Level FlightAware ADS-B
Thu 10:32:22 PM 41.9115 -99.7223 78° East 472 543 37,000  Level FlightAware ADS-B
Thu 10:32:53 PM 41.9252 -99.6332 78° East 473 544 37,000  Level FlightAware ADS-B
Thu 10:33:54 PM 41.9519 -99.4591 78° East 472 543 37,000  Level FlightAware ADS-B
Thu 10:34:25 PM 41.9649 -99.3728 79° East 470 541 37,000  Level FlightAware ADS-B
Thu 10:34:55 PM 41.9778 -99.2865 79° East 469 540 37,000  Level FlightAware ADS-B
Thu 10:35:25 PM 41.9908 -99.1996 79° East 469 540 37,000  Level FlightAware ADS-B
Thu 10:35:56 PM 42.0035 -99.1139 79° East 469 540 37,000  Level FlightAware ADS-B
Thu 10:36:27 PM 42.0167 -99.0244 79° East 470 541 37,000  Level FlightAware ADS-B
Thu 10:38:49 PM 42.0757 -98.6202 79° East 472 543 37,000  Level FlightAware ADS-B
Thu 10:39:03 PM 42.0814 -98.5784 80° East 471 542 37,000  Level FlightAware ADS-B
Thu 10:39:33 PM 42.0900 -98.4913 82° East 476 548 37,000  Level FlightAware ADS-B
Thu 10:40:03 PM 42.0977 -98.4024 83° East 476 548 37,000  Level FlightAware ADS-B
Thu 10:40:34 PM 42.1058 -98.3129 83° East 476 548 37,000  Level FlightAware ADS-B
Thu 10:41:04 PM 42.1142 -98.2242 83° East 476 548 37,000  Level FlightAware ADS-B
Thu 10:41:35 PM 42.1227 -98.1338 83° East 474 545 37,000  Level FlightAware ADS-B
Thu 10:42:05 PM 42.1307 -98.0461 83° East 472 543 37,000  Level FlightAware ADS-B
Thu 10:42:37 PM 42.1393 -97.9520 83° East 473 544 37,000  Level FlightAware ADS-B
Thu 10:43:07 PM 42.1473 -97.8642 83° East 473 544 37,000  Level FlightAware ADS-B
Thu 10:43:38 PM 42.1553 -97.7744 83° East 474 545 37,000  Level FlightAware ADS-B
Thu 10:44:09 PM 42.1634 -97.6858 83° East 473 544 37,000  Level FlightAware ADS-B
Thu 10:44:39 PM 42.1713 -97.5980 83° East 473 544 37,000  Level FlightAware ADS-B
Thu 10:45:09 PM 42.1790 -97.5090 83° East 473 544 37,000  Level FlightAware ADS-B
Thu 10:45:39 PM 42.1867 -97.4210 83° East 473 544 37,000  Level FlightAware ADS-B
Thu 10:46:09 PM 42.1943 -97.3327 83° East 473 544 37,000  Level FlightAware ADS-B
Thu 10:46:40 PM 42.2019 -97.2436 83° East 472 543 37,000  Level FlightAware ADS-B
Thu 10:47:10 PM 42.2094 -97.1553 83° East 472 543 37,000  Level FlightAware ADS-B
Thu 10:47:40 PM 42.2168 -97.0681 83° East 472 543 37,000  Level FlightAware ADS-B
Thu 10:48:11 PM 42.2242 -96.9792 84° East 472 543 37,000  Level FlightAware ADS-B
Thu 10:48:43 PM 42.2319 -96.8852 84° East 471 542 37,000  Level FlightAware ADS-B
Thu 10:49:13 PM 42.2391 -96.7972 84° East 470 541 37,000  Level FlightAware ADS-B
Thu 10:49:44 PM 42.2463 -96.7087 84° East 469 540 37,000  Level FlightAware ADS-B
Thu 10:50:14 PM 42.2531 -96.6221 84° East 468 539 37,000  Level FlightAware ADS-B
Thu 10:50:44 PM 42.2600 -96.5337 84° East 469 540 37,000  Level FlightAware ADS-B
Thu 10:51:15 PM 42.2670 -96.4445 84° East 470 541 37,000  Level FlightAware ADS-B
Thu 10:51:45 PM 42.2740 -96.3547 84° East 469 540 37,000  Level FlightAware ADS-B
Thu 10:52:16 PM 42.2807 -96.2681 84° East 468 539 37,000  Level FlightAware ADS-B
Thu 10:52:47 PM 42.2874 -96.1807 84° East 467 537 37,000  Level FlightAware ADS-B
Thu 10:53:18 PM 42.2946 -96.0861 84° East 466 536 37,000  Level FlightAware ADS-B
Thu 10:53:49 PM 42.3012 -95.9985 84° East 465 535 37,000  Level FlightAware ADS-B
Thu 10:54:19 PM 42.3076 -95.9106 84° East 465 535 37,000  Level FlightAware ADS-B
Thu 10:54:50 PM 42.3140 -95.8232 84° East 465 535 37,000  Level FlightAware ADS-B
Thu 10:55:22 PM 42.3208 -95.7297 84° East 465 535 37,000  Level FlightAware ADS-B
Thu 10:55:53 PM 42.3270 -95.6417 85° East 465 535 37,000  Level FlightAware ADS-B
Thu 10:56:23 PM 42.3332 -95.5538 85° East 465 535 37,000  Level FlightAware ADS-B
Thu 10:56:53 PM 42.3392 -95.4668 85° East 466 536 37,000  Level FlightAware ADS-B
Thu 10:57:24 PM 42.3455 -95.3761 85° East 466 536 37,000  Level FlightAware ADS-B
Thu 10:57:54 PM 42.3513 -95.2897 85° East 467 537 37,000  Level FlightAware ADS-B
Thu 10:58:25 PM 42.3574 -95.2000 85° East 467 537 37,000  Level FlightAware ADS-B
Thu 10:58:55 PM 42.3632 -95.1127 85° East 468 539 37,000  Level FlightAware ADS-B
Thu 10:59:25 PM 42.3690 -95.0249 85° East 467 537 37,000  Level FlightAware ADS-B
Thu 11:00:13 PM 42.3777 -94.8883 85° East 467 537 37,000  Level FlightAware ADS-B
Thu 11:00:43 PM 42.3834 -94.7995 85° East 466 536 37,000  Level FlightAware ADS-B
Thu 11:01:13 PM 42.3890 -94.7125 85° East 465 535 37,000  Level FlightAware ADS-B
Thu 11:01:47 PM 42.3952 -94.6144 85° East 465 535 37,000  Level FlightAware ADS-B
Thu 11:02:18 PM 42.4006 -94.5270 85° East 465 535 37,000  Level FlightAware ADS-B
Thu 11:02:48 PM 42.4057 -94.4425 85° East 465 535 37,000  Level FlightAware ADS-B
Thu 11:03:23 PM 42.4119 -94.3380 85° East 463 533 37,000  Level FlightAware ADS-B
Thu 11:03:53 PM 42.4171 -94.2506 85° East 463 533 37,000  Level FlightAware ADS-B
Thu 11:04:24 PM 42.4222 -94.1623 85° East 462 532 37,000  Level FlightAware ADS-B
Thu 11:04:55 PM 42.4273 -94.0744 85° East 463 533 37,000  Level FlightAware ADS-B
Thu 11:05:26 PM 42.4322 -93.9852 86° East 464 534 37,000  Level FlightAware ADS-B
Thu 11:05:56 PM 42.4371 -93.8982 86° East 465 535 37,000  Level FlightAware ADS-B
Thu 11:06:27 PM 42.4422 -93.8074 86° East 465 535 37,000  Level FlightAware ADS-B
Thu 11:06:57 PM 42.4470 -93.7204 86° East 465 535 37,000  Level FlightAware ADS-B
Thu 11:07:46 PM 42.4550 -93.5790 86° East 464 534 37,000  Level FlightAware ADS-B
Thu 11:08:30 PM 42.4610 -93.4530 86° East 463 533 37,000  Level FlightAware ADS-B
Thu 11:09:09 PM 42.4670 -93.3410 86° East 464 534 37,000  Level FlightAware ADS-B
Thu 11:09:46 PM 42.4720 -93.2350 86° East 464 534 37,000  Level FlightAware ADS-B
Thu 11:10:29 PM 42.4780 -93.1110 86° East 463 533 37,000  Level FlightAware ADS-B
Thu 11:13:30 PM 42.4880 -92.9130 86° East 461 531 37,000  Level FlightAware ADS-B
Thu 11:14:21 PM 42.5080 -92.4470 87° East 463 533 37,000  Level FlightAware ADS-B
Thu 11:14:57 PM 42.5130 -92.3430 86° East 463 533 37,000  Level FlightAware ADS-B
Thu 11:15:43 PM 42.5190 -92.2020 87° East 464 534 37,000  Level FlightAware ADS-B
Thu 11:16:25 PM 42.5230 -92.0860 87° East 465 535 37,000  Level FlightAware ADS-B
Thu 11:17:09 PM 42.5260 -91.9580 88° East 467 537 37,000  Level FlightAware ADS-B
Thu 11:17:47 PM 42.5260 -91.8470 90° East 466 536 37,000  Level FlightAware ADS-B
Thu 11:18:29 PM 42.5260 -91.7220 90° East 465 535 37,000  Level FlightAware ADS-B
Thu 11:19:13 PM 42.5270 -91.5950 89° East 464 534 37,000  Level FlightAware ADS-B
Thu 11:19:54 PM 42.5280 -91.4750 89° East 463 533 37,000 -143 Level FlightAware ADS-B
Thu 11:20:37 PM 42.5280 -91.3480 90° East 464 534 36,800 -593 Descending FlightAware ADS-B
Thu 11:21:15 PM 42.5280 -91.2400 90° East 467 537 36,200 -929 Descending FlightAware ADS-B
Thu 11:22:01 PM 42.5280 -91.1030 90° East 470 541 35,500 -955 Descending FlightAware ADS-B
Thu 11:22:43 PM 42.5280 -90.9810 90° East 473 544 34,800 -951 Descending FlightAware ADS-B
Thu 11:23:23 PM 42.5270 -90.8600 91° East 473 544 34,200 -929 Descending FlightAware ADS-B
Thu 11:24:07 PM 42.5270 -90.7300 90° East 475 547 33,500 -1,000 Descending FlightAware ADS-B
Thu 11:24:47 PM 42.5260 -90.6110 91° East 478 550 32,800 -1,000 Descending FlightAware ADS-B
Thu 11:25:31 PM 42.5250 -90.4800 91° East 482 555 32,100 -1,079 Descending FlightAware ADS-B
Thu 11:26:16 PM 42.5250 -90.3450 90° East 486 559 31,200 -1,482 Descending FlightAware ADS-B
Thu 11:26:56 PM 42.5240 -90.2250 91° East 488 562 30,000 -2,240 Descending FlightAware ADS-B
Thu 11:27:31 PM 42.5230 -90.1150 91° East 479 551 28,400 -3,360 Descending FlightAware ADS-B
Thu 11:28:11 PM 42.5220 -89.9960 91° East 486 559 25,800 -3,286 Descending FlightAware ADS-B
Thu 11:28:55 PM 42.5120 -89.8650 96° East 475 547 23,800 -2,259 Descending FlightAware ADS-B
Thu 11:29:36 PM 42.5010 -89.7460 97° East 467 537 22,600 -1,357 Descending FlightAware ADS-B
Thu 11:30:19 PM 42.4890 -89.6230 97° East 455 524 21,900 -929 Descending FlightAware ADS-B
Thu 11:31:00 PM 42.4790 -89.5100 97° East 454 522 21,300 -1,059 Descending FlightAware ADS-B
Thu 11:31:44 PM 42.4660 -89.3840 98° East 456 525 20,400 -1,636 Descending FlightAware ADS-B
Thu 11:32:17 PM 42.4570 -89.2890 97° East 445 512 19,200 -2,132 Descending FlightAware ADS-B
Thu 11:33:00 PM 42.4460 -89.1750 97° East 426 490 17,700 -2,214 Descending FlightAware ADS-B
Thu 11:33:41 PM 42.4350 -89.0660 98° East 421 484 16,100 -2,148 Descending FlightAware ADS-B
Thu 11:34:21 PM 42.4250 -88.9680 98° East 416 479 14,800 -1,974 Descending FlightAware ADS-B
Thu 11:34:57 PM 42.4150 -88.8700 98° East 408 470 13,600 -1,800 Descending FlightAware ADS-B
Thu 11:35:41 PM 42.4040 -88.7620 98° East 384 442 12,400 -1,835 Descending FlightAware ADS-B
Thu 11:36:22 PM 42.3940 -88.6670 98° East 384 442 11,000 -1,714 Descending FlightAware ADS-B
Thu 11:37:05 PM 42.3640 -88.5730 113° Southeast 373 429 10,000 -1,200 Descending FlightAware ADS-B
Thu 11:37:17 PM 42.3520 -88.5510 126° Southeast 373 429 9,900  Descending FlightAware ADS-B
Thu 11:37:46 PM 42.3240 -88.4980 126° Southeast 371 427 10,000 105 Climbing FlightAware ADS-B
Thu 11:38:14 PM 42.2940 -88.4430 126° Southeast 371 427 10,000  Level FlightAware ADS-B
Thu 11:38:42 PM 42.2660 -88.3930 127° Southeast 371 427 10,000  Level FlightAware ADS-B
Thu 11:38:58 PM 42.2490 -88.3630 127° Southeast 370 426 10,000 -150 Level FlightAware ADS-B
Thu 11:39:22 PM 42.2250 -88.3210 128° Southeast 362 417 9,900  Descending FlightAware ADS-B
Thu 11:39:46 PM 42.2010 -88.2780 127° Southeast 331 381 10,000 -231 Climbing FlightAware ADS-B
Thu 11:40:14 PM 42.1760 -88.2340 127° Southeast 312 359 9,700 -750 Descending FlightAware ADS-B
Thu 11:40:26 PM 42.1660 -88.2160 127° Southeast 308 354 9,500 -1,429 Descending FlightAware ADS-B
Thu 11:40:56 PM 42.1400 -88.1710 128° Southeast 305 351 8,700 -1,565 Descending FlightAware ADS-B
Thu 11:41:12 PM 42.1260 -88.1460 127° Southeast 304 350 8,300 -1,667 Descending FlightAware ADS-B
Thu 11:41:32 PM 42.1150 -88.1120 114° Southeast 309 356 7,700 -1,560 Descending FlightAware ADS-B
Thu 11:42:02 PM 42.1050 -88.0560 104° East 306 352 7,000 -1,050 Descending FlightAware ADS-B
Thu 11:42:12 PM 42.1010 -88.0370 106° East 298 343 7,000  Level FlightAware ADS-B
Thu 11:42:42 PM 42.0910 -87.9860 105° East 271 312 7,000  Level FlightAware ADS-B
Thu 11:43:10 PM 42.0830 -87.9410 103° East 260 299 7,000  Level FlightAware ADS-B
Thu 11:43:30 PM 42.0770 -87.9110 105° East 260 299 7,000  Level FlightAware ADS-B
Thu 11:43:46 PM 42.0750 -87.8850 96° East 255 293 7,000 -279 Level FlightAware ADS-B
Thu 11:44:13 PM 42.0770 -87.8460 86° East 235 270 6,800 -873 Descending FlightAware ADS-B
Thu 11:44:41 PM 42.0790 -87.8060 86° East 227 261 6,200 -1,241 Descending FlightAware ADS-B
Thu 11:45:11 PM 42.0820 -87.7640 84° East 224 258 5,600 -1,263 Descending FlightAware ADS-B
Thu 11:45:38 PM 42.0840 -87.7270 86° East 227 261 5,000 -1,309 Descending FlightAware ADS-B
Thu 11:46:06 PM 42.0860 -87.6850 86° East 224 258 4,400 -1,071 Descending FlightAware ADS-B
Thu 11:46:34 PM 42.0880 -87.6500 86° East 222 255 4,000 -353 Descending FlightAware ADS-B
Thu 11:47:14 PM 42.0760 -87.5980 107° East 202 232 4,000  Level FlightAware ADS-B
Thu 11:47:27 PM 42.0670 -87.5940 162° South 191 220 4,000  Level FlightAware ADS-B
Thu 11:47:55 PM 42.0430 -87.5880 169° South 186 214 4,000  Level FlightAware ADS-B
Thu 11:48:19 PM 42.0220 -87.5830 170° South 187 215 4,000  Level FlightAware ADS-B
Thu 11:48:47 PM 41.9990 -87.5780 171° South 188 216 4,000  Level FlightAware ADS-B
Thu 11:48:57 PM 41.9900 -87.5760 171° South 187 215 4,000  Level FlightAware ADS-B
Thu 11:49:27 PM 41.9720 -87.5950 218° Southwest 171 197 4,000  Level FlightAware ADS-B
Thu 11:49:42 PM 41.9700 -87.6100 260° West 171 197 4,000  Level FlightAware ADS-B
Thu 11:49:55 PM 41.9690 -87.6250 265° West 173 199 4,000 -474 Level FlightAware ADS-B
Thu 11:50:20 PM 41.9690 -87.6540 270° West 175 201 3,700 -692 Descending FlightAware ADS-B
Thu 11:50:47 PM 41.9690 -87.6810 270° West 172 198 3,400 -814 Descending FlightAware ADS-B
Thu 11:51:19 PM 41.9690 -87.7150 270° West 171 197 2,900 -894 Descending FlightAware ADS-B
Thu 11:51:34 PM 41.9690 -87.7320 270° West 171 197 2,700 -857 Descending FlightAware ADS-B
Thu 11:51:54 PM 41.9690 -87.7520 270° West 170 196 2,400 -857 Descending FlightAware ADS-B
Thu 11:52:30 PM 41.9690 -87.7870 270° West 159 183 1,900 -789 Descending FlightAware ADS-B
Thu 11:53:10 PM 41.9690 -87.8250 270° West 131 151 1,400 -667 Descending FlightAware ADS-B
Thu 11:53:42 PM 41.9690 -87.8490 270° West 132 152 1,100 -646 Descending FlightAware ADS-B
Thu 11:54:15 PM 41.9690 -87.8780 270° West 133 153 700 -667 Descending FlightAware ADS-B
Thu 11:54:27 PM 41.9690 -87.8870 270° West 134 154 600 -162 Descending FlightAware ADS-B
Thu 11:54:52 PM 41.9690 -87.9050 270° West 134 154 600  Level FlightAware ADS-B
Fri 12:00:17 AM 41.9780 -87.8970 33° Northeast 22 25 -111 Descending FlightAware ADS-B

Login

Don't have an account? Register now (free) for customized features, flight alerts, and more!